Regina International Airport
CYQR : rendu visible

Aérodrome :











RETROUVEZ-NOUS SUR...

 
LOGIN :

S'inscrire | Disclaimer

   EN    FR    IT 

 









Légende :    VFR   VFR Marginal   IFR   IFR Intensif   IFR Très Intensif
Visi : 
Plafond : 
>= 8 km
>= 3000ft
5 à 8 km
1000 à 3000 ft
1500m à 5 km
500 à 1000 ft
800 à 1500m
200 à 500 ft
< 800m
< 200 ft
Symboles :   Orages  Brouillard  Fortes neiges  Fortes précipitations  Vent > 20 kt







- Altitude de l'aérodrome : 1894 ft
- Code IATA : YQR


CYQR - Regina International

DERNIER METAR :
  • 190200Z 07002KT 15SM BKN089 18/13 A2987 RMK AC7 SLP121 DENSITY ALT 2800FT

METARs EXPIRÉS :
  • 190100Z 02002KT 15SM FEW035 FEW076 SCT250 19/12 A2985 RMK SC1AC1CI1 SLP114 DENSITY ALT 3000FT
  • 190000Z 36005KT 15SM FEW036 FEW250 21/13 A2982 RMK CU1CI1 CI TR WND ESTD SLP105 DENSITY ALT 3200FT

TAF TAF CYQR
Valide du 19 à 00h jusqu'au 20 à 00h UTC


182338Z 1900/1924 35006KT P6SM FEW030
TEMPO 1900/1908 BKN030
BECMG 1900/1902 11006KT
FM190800 11006KT P6SM FEW005 SCT040
PROB30 1909/1914 3/4SM BR BKN003
FM191400 11010KT P6SM FEW240
FM192000 12012KT P6SM FEW040 SCT180 RMK NXT FCST BY 190600Z
Pas de NOTAMs connus pour ce terrain.



MET'MAP, la Météo Aéronautique d'un coup d'oeil ! - Copyright ORBIFLY Décembre 2007 - Disclaimer

ORBIFLY MET'MAP TEAM :

Programmation & Développement : Alexandra Zaïnal
Conception & Développement : Baudouin d'Aumeries
Co-Programmation & Développement : Marc-Olivier Méhu
Soutien technique & logistique : Manuel Goepfert

Contact : metmap@orbifly.com




SOURCES & CREDITS :

   NOAA       Earth
Advisory